• Join FlightAware (Why Join?)
  • Login
  • US Flag 
02:51AM EDT


 

Airport Tracker/Info


-or-


 

Live Flight TrackerFlight Track Log ✈ N1250V ✈ 09-Aug-2013 ✈ KSLN - KASE

Flight Track Log - Related Links

Times and Time Zones

All times are in EDT time to prevent confusion due to time zone crossing. See the N1250V flight status page for this flight to view local times or setup timezone preferences in your user account.

Time Position Orientation Groundspeed Altitude Reporting Facility
EDT Latitude Longitude Course Direction KTS MPH feet Rate Location/Type
12:50PM 38.7536 -97.7131 259° West 211 243 4,800  Level Kansas City Center
12:51PM 38.7633 -97.7883 279° West 222 255 6,600 1,620 Climbing Kansas City Center
12:52PM 38.7794 -97.8683 285° West 248 285 8,200 1,620 Climbing Kansas City Center
12:53PM 38.7939 -97.9558 282° West 252 290 10,000 1,740 Climbing Kansas City Center
12:54PM 38.8816 -98.3223 281° West  Level FlightAware Approximate
12:54PM 38.8106 -98.0594 282° West 249 287 11,900  Level Kansas City Center
12:55PM 38.9034 -98.4337 284° West  Level FlightAware Approximate
12:55PM 38.8247 -98.1464 282° West 250 288 13,400  Level Kansas City Center
12:56PM 38.8400 -98.2358 282° West 250 288 14,800 1,320 Climbing Kansas City Center
12:58PM 38.8536 -98.3233 281° West 257 296 16,200 1,200 Climbing Kansas City Center
12:59PM 38.8694 -98.4136 283° West 260 299 17,300 900 Climbing Kansas City Center
01:00PM 38.8831 -98.5067 281° West 266 306 18,100 1,200 Climbing Kansas City Center
01:01PM 38.9003 -98.6203 281° West 269 310 19,800 1,380 Climbing Kansas City Center
01:02PM 38.9186 -98.7089 285° West 259 298 21,000 840 Climbing Kansas City Center
01:03PM 38.9314 -98.8025 280° West 265 305 21,600 780 Climbing Kansas City Center
01:04PM 38.9475 -98.8969 282° West 271 312 22,700 840 Climbing Kansas City Center
01:05PM 38.9597 -98.9933 279° West 272 313 23,400 840 Climbing Kansas City Center
01:06PM 38.9781 -99.1081 282° West 273 314 24,500 720 Climbing Kansas City Center
01:07PM 38.9928 -99.2086 281° West 285 328 25,000 660 Climbing Kansas City Center
01:08PM 39.0097 -99.3108 282° West 291 335 25,900 780 Climbing Kansas City Center
01:09PM 39.0264 -99.4128 282° West 293 337 26,700 600 Climbing Kansas City Center
01:10PM 39.0397 -99.5169 279° West 294 338 27,200 660 Climbing Kansas City Center
01:11PM 39.0606 -99.6406 282° West 302 348 28,100 720 Climbing Kansas City Center
01:12PM 39.0731 -99.7367 280° West 298 343 28,800 660 Climbing Denver Center
01:13PM 39.0897 -99.8528 281° West 298 343 29,500 600 Climbing Denver Center
01:14PM 39.1064 -99.9528 282° West 298 343 30,100 600 Climbing Denver Center
01:15PM 39.1225 -100.0703 280° West 297 342 30,800 540 Climbing Denver Center
01:16PM 39.1372 -100.1694 281° West 293 337 31,300 540 Climbing Denver Center
01:17PM 39.1536 -100.2833 281° West 291 335 32,000 300 Climbing Denver Center
01:18PM 39.1669 -100.3808 280° West 289 333 32,000  Level Denver Center
01:19PM 39.1847 -100.5025 281° West 303 349 32,000  Level Denver Center
01:20PM 39.1989 -100.6042 280° West 304 350 32,000  Level Denver Center
01:21PM 39.2164 -100.7275 280° West 311 358 32,000  Level Denver Center
01:22PM 39.2317 -100.8367 280° West 319 367 32,000 120 Level Denver Center
01:23PM 39.2458 -100.9436 280° West 317 365 32,300 300 Climbing Denver Center
01:24PM 39.2622 -101.0661 280° West 312 359 32,700 360 Climbing Denver Center
01:25PM 39.2761 -101.1667 280° West 302 348 33,100 240 Climbing Denver Center
01:26PM 39.2925 -101.2828 280° West 297 342 33,300 240 Climbing Denver Center
01:28PM 39.3056 -101.3839 280° West 297 342 33,700 300 Climbing Denver Center
01:29PM 39.3211 -101.4986 280° West 292 336 34,000 120 Climbing Denver Center
01:30PM 39.3336 -101.5978 279° West 292 336 34,000  Level Denver Center
01:31PM 39.3503 -101.7208 280° West 307 353 34,000  Level Denver Center
01:32PM 39.3639 -101.8250 280° West 308 354 34,000  Level Denver Center
01:33PM 39.3800 -101.9500 280° West 314 361 34,000  Level Denver Center
01:34PM 39.3936 -102.0581 279° West 317 365 34,000  Level Denver Center
01:35PM 39.4094 -102.1836 279° West 318 366 34,000  Level Denver Center
01:36PM 39.4233 -102.2936 279° West 323 372 34,000  Level Denver Center
01:37PM 39.4394 -102.4189 279° West 322 371 34,000  Level Denver Center
01:38PM 39.4531 -102.5339 279° West 324 373 34,000  Level Denver Center
01:39PM 39.4678 -102.6481 280° West 323 372 34,000  Level Denver Center
01:40PM 39.4808 -102.7639 278° West 324 373 34,000  Level Denver Center
01:41PM 39.4958 -102.8797 280° West 328 377 34,000  Level Denver Center
01:42PM 39.5097 -102.9958 279° West 326 375 34,000  Level Denver Center
01:43PM 39.5258 -103.1358 279° West 328 377 34,000  Level Denver Center
01:44PM 39.5403 -103.2533 279° West 330 380 34,000  Level Denver Center
01:45PM 39.5531 -103.3708 278° West 330 380 34,000  Level Denver Center
01:46PM 39.5669 -103.4889 279° West 332 382 34,000  Level Denver Center
01:47PM 39.5803 -103.6078 278° West 335 386 34,000  Level Denver Center
01:48PM 39.5969 -103.7506 279° West 334 384 34,000  Level Denver Center
01:49PM 39.6106 -103.8717 278° West 336 387 34,000  Level Denver Center
01:50PM 39.6244 -103.9914 279° West 336 387 34,000  Level Denver Center
01:51PM 39.6369 -104.1100 278° West 331 381 34,000  Level Denver Center
01:52PM 39.6500 -104.2311 278° West 337 388 34,000  Level Denver Center
01:53PM 39.6628 -104.3500 278° West 336 387 34,000  Level Denver Center
01:54PM 39.6778 -104.4936 278° West 337 388 34,000  Level Denver Center
01:55PM 39.6908 -104.6111 278° West 334 384 34,000  Level Denver Center
01:56PM 39.6831 -104.7294 265° West 339 390 34,000  Level Denver Center
01:58PM 39.6694 -104.8717 263° West 342 394 34,000 -540 Level Denver Center
01:59PM 39.6647 -104.9964 267° West 351 404 33,000 -960 Descending Denver Center
02:00PM 39.6600 -105.1281 267° West 364 419 32,100 -780 Descending Denver Center
02:01PM 39.6589 -105.2597 269° West 366 421 31,400 -660 Descending Denver Center
02:02PM 39.6578 -105.3914 269° West 367 422 30,800 -600 Descending Denver Center
02:03PM 39.6561 -105.5214 269° West 363 418 30,200 -660 Descending Denver Center
02:04PM 39.6592 -105.6781 272° West 361 415 29,500 -780 Descending Denver Center
02:05PM 39.6683 -105.8083 275° West 361 415 28,700 -540 Descending Denver Center
02:06PM 39.6769 -105.9367 275° West 360 414 28,500 -300 Descending Denver Center
02:07PM 39.6825 -106.0667 273° West 362 417 28,200 -300 Descending Denver Center
02:08PM 39.6517 -106.2000 253° West 360 414 28,000 -300 Descending Denver Center
02:09PM 39.6250 -106.3231 254° West 356 410 27,700 -300 Descending Denver Center
02:10PM 39.5972 -106.4467 254° West 356 410 27,500 -300 Descending Denver Center
02:11PM 39.5619 -106.5808 251° West 356 410 27,200 -360 Descending Denver Center
02:12PM 39.4969 -106.6967 234° Southwest 355 409 26,800 -1,020 Descending Denver Center
02:13PM 39.4436 -106.7908 234° Southwest 341 392 25,100 -1,500 Descending Denver Center
02:14PM 39.4353 -106.8953 264° West 310 357 23,700 -1,920 Descending Denver Center
02:15PM 39.4581 -107.0128 284° West 302 348 21,200 -2,460 Descending Denver Center
02:16PM 39.4744 -107.1111 282° West 294 338 18,700 -2,100 Descending Denver Center
02:17PM 39.5125 -107.1992 299° West 274 315 16,900 -840 Descending Denver Center
02:18PM 39.5161 -107.1089 87° East 254 292 16,900 -540 Level Denver Center
02:19PM 39.4700 -107.0453 133° Southeast 255 293 15,700 -1,020 Descending Denver Center
02:20PM 39.4175 -107.0067 150° Southeast 227 261 14,800 -1,140 Descending Denver Center
02:22PM 39.3833 -106.9692 140° Southeast 174 200 13,400 -1,500 Descending Denver Center
02:23PM 39.3442 -106.9264 140° Southeast 158 182 11,800 -1,740 Descending Denver Center
02:24PM 39.3044 -106.9072 160° South 154 177 9,900 -1,620 Descending Denver Center
02:25PM 39.2619 -106.8875 160° South 152 175 8,500 -1,380 Descending Denver Center